PWSweather.com
Personal Weather Stations
Station Observations
PENICUIKWS
PenicuikGB

PenicuikGB

Lat: 55.830932, Lon: -3.224533000000065

Elevation: 166

Station Type: Fine Offset

http://weather.penicuik.org

High Low Average
Temperature 63.0°F17.2°C 45.0°F7.2°C 50.8°F10.4°C
Dew Point 47.1°F8.4°C 40.9°F4.9°C 43.3°F6.3°C
Winds 6.4 mph 10.3 kmh Calm Calm 2.0 mph S3.2 kmh S
Wind Gusts 13.6 mph21.9 kmh -- 5.0 mph8.0 kmh
Humidity 93% 48% 77%
Pressure 29.70 in1005.8 mb 29.35 in993.9 mb -
Precipitation 0.02 in0.5 mm - -
Hour Temp Dew Point Humidity Winds Wind Gusts Pressure Precip Precip Rate Daily Precip Total
12:00 AM 48.0°F8.9°C 43.1°F6.2°C 83% 4.7 mph NNW7.6 kmh NNW 9.8 mph15.8 kmh 29.62 in1003.0 mb 0.01 in0.3 mm 0.00 in0.0 mm 0.01 in0.3 mm
12:15 AM 47.5°F8.6°C 42.9°F6.1°C 84% 4.4 mph SW7.1 kmh SW 9.2 mph14.8 kmh 29.63 in1003.4 mb 0.01 in0.3 mm 0.00 in0.0 mm 0.01 in0.3 mm
12:45 AM 47.5°F8.6°C 42.6°F5.9°C 83% 4.5 mph W7.2 kmh W 9.2 mph14.8 kmh 29.63 in1003.4 mb 0.01 in0.3 mm 0.00 in0.0 mm 0.01 in0.3 mm
01:00 AM 47.3°F8.5°C 42.4°F5.8°C 83% 3.5 mph N5.6 kmh N 5.4 mph8.7 kmh 29.64 in1003.7 mb 0.00 in0.0 mm 0.00 in0.0 mm 0.01 in0.3 mm
01:15 AM 46.9°F8.3°C 42.4°F5.8°C 84% 3.9 mph NNE6.3 kmh NNE 5.4 mph8.7 kmh 29.64 in1003.7 mb 0.00 in0.0 mm 0.00 in0.0 mm 0.01 in0.3 mm
01:46 AM 46.9°F8.3°C 42.1°F5.6°C 83% 3.2 mph NNW5.1 kmh NNW 7.6 mph12.2 kmh 29.64 in1003.7 mb 0.00 in0.0 mm 0.00 in0.0 mm 0.01 in0.3 mm
02:00 AM 46.8°F8.2°C 42.2°F5.7°C 84% 2.8 mph NW4.5 kmh NW 7.6 mph12.2 kmh 29.64 in1003.7 mb 0.00 in0.0 mm 0.00 in0.0 mm 0.01 in0.3 mm
02:15 AM 46.9°F8.3°C 42.4°F5.8°C 84% 4.5 mph SSW7.2 kmh SSW 6.9 mph11.1 kmh 29.64 in1003.7 mb 0.00 in0.0 mm 0.00 in0.0 mm 0.01 in0.3 mm
02:30 AM 46.8°F8.2°C 41.9°F5.5°C 83% 3.3 mph W5.3 kmh W 6.9 mph11.1 kmh 29.65 in1004.1 mb 0.00 in0.0 mm 0.00 in0.0 mm 0.01 in0.3 mm
02:45 AM 46.6°F8.1°C 41.7°F5.4°C 83% 3.2 mph N5.1 kmh N 6.0 mph9.7 kmh 29.65 in1004.1 mb 0.00 in0.0 mm 0.00 in0.0 mm 0.01 in0.3 mm
03:00 AM 46.6°F8.1°C 42.0°F5.6°C 84% 2.2 mph NNW3.5 kmh NNW 3.8 mph6.1 kmh 29.66 in1004.4 mb 0.00 in0.0 mm 0.00 in0.0 mm 0.01 in0.3 mm
03:15 AM 46.4°F8.0°C 41.8°F5.4°C 84% 3.3 mph NW5.3 kmh NW 5.4 mph8.7 kmh 29.65 in1004.1 mb 0.00 in0.0 mm 0.00 in0.0 mm 0.01 in0.3 mm
03:30 AM 46.4°F8.0°C 42.1°F5.6°C 85% 3.0 mph NW4.8 kmh NW 4.5 mph7.2 kmh 29.65 in1004.1 mb 0.00 in0.0 mm 0.00 in0.0 mm 0.01 in0.3 mm
03:45 AM 46.8°F8.2°C 42.8°F6.0°C 86% 3.3 mph NW5.3 kmh NW 6.0 mph9.7 kmh 29.65 in1004.1 mb 0.00 in0.0 mm 0.00 in0.0 mm 0.01 in0.3 mm
04:15 AM 47.3°F8.5°C 43.3°F6.3°C 86% 4.4 mph NW7.1 kmh NW 9.2 mph14.8 kmh 29.66 in1004.4 mb 0.00 in0.0 mm 0.00 in0.0 mm 0.01 in0.3 mm
04:30 AM 47.5°F8.6°C 43.2°F6.2°C 85% 3.8 mph WSW6.1 kmh WSW 13.0 mph20.9 kmh 29.66 in1004.4 mb 0.00 in0.0 mm 0.00 in0.0 mm 0.01 in0.3 mm
04:45 AM 46.8°F8.2°C 42.5°F5.8°C 85% 2.8 mph N4.5 kmh N 7.6 mph12.2 kmh 29.67 in1004.7 mb 0.00 in0.0 mm 0.00 in0.0 mm 0.01 in0.3 mm
05:15 AM 46.4°F8.0°C 42.4°F5.8°C 86% 2.9 mph SE4.7 kmh SE 5.4 mph8.7 kmh 29.67 in1004.7 mb 0.00 in0.0 mm 0.00 in0.0 mm 0.01 in0.3 mm
05:30 AM 46.4°F8.0°C 42.4°F5.8°C 86% 2.3 mph NW3.7 kmh NW 3.8 mph6.1 kmh 29.67 in1004.7 mb 0.00 in0.0 mm 0.00 in0.0 mm 0.01 in0.3 mm
05:45 AM 46.0°F7.8°C 42.4°F5.8°C 87% 2.3 mph NW3.7 kmh NW 5.4 mph8.7 kmh 29.67 in1004.7 mb 0.00 in0.0 mm 0.00 in0.0 mm 0.01 in0.3 mm
06:00 AM 46.2°F7.9°C 42.6°F5.9°C 87% 2.3 mph WSW3.7 kmh WSW 3.8 mph6.1 kmh 29.68 in1005.1 mb 0.00 in0.0 mm 0.00 in0.0 mm 0.01 in0.3 mm
06:15 AM 46.2°F7.9°C 42.6°F5.9°C 87% 2.4 mph N3.9 kmh N 3.1 mph5.0 kmh 29.68 in1005.1 mb 0.00 in0.0 mm 0.00 in0.0 mm 0.01 in0.3 mm
06:30 AM 47.3°F8.5°C 43.3°F6.3°C 86% 2.8 mph NW4.5 kmh NW 4.5 mph7.2 kmh 29.69 in1005.4 mb 0.00 in0.0 mm 0.00 in0.0 mm 0.01 in0.3 mm
06:45 AM 48.6°F9.2°C 44.0°F6.7°C 84% 2.4 mph NW3.9 kmh NW 3.8 mph6.1 kmh 29.69 in1005.4 mb 0.00 in0.0 mm 0.00 in0.0 mm 0.01 in0.3 mm
07:00 AM 49.3°F9.6°C 44.0°F6.7°C 82% 3.4 mph S5.5 kmh S 6.9 mph11.1 kmh 29.69 in1005.4 mb 0.00 in0.0 mm 0.00 in0.0 mm 0.01 in0.3 mm
07:15 AM 49.5°F9.7°C 43.9°F6.6°C 81% 3.1 mph NNE5.0 kmh NNE 6.0 mph9.7 kmh 29.69 in1005.4 mb 0.00 in0.0 mm 0.00 in0.0 mm 0.01 in0.3 mm
07:30 AM 50.2°F10.1°C 43.9°F6.6°C 79% 3.6 mph SSE5.8 kmh SSE 7.6 mph12.2 kmh 29.69 in1005.4 mb 0.00 in0.0 mm 0.00 in0.0 mm 0.01 in0.3 mm
07:45 AM 50.4°F10.2°C 43.4°F6.3°C 77% 3.0 mph NNW4.8 kmh NNW 4.5 mph7.2 kmh 29.70 in1005.8 mb 0.00 in0.0 mm 0.00 in0.0 mm 0.01 in0.3 mm
08:00 AM 55.9°F13.3°C 47.1°F8.4°C 72% 4.2 mph NNE6.8 kmh NNE 6.0 mph9.7 kmh 29.69 in1005.4 mb 0.00 in0.0 mm 0.00 in0.0 mm 0.01 in0.3 mm
08:15 AM 58.5°F14.7°C 45.5°F7.5°C 62% 3.5 mph E5.6 kmh E 5.4 mph8.7 kmh 29.69 in1005.4 mb 0.00 in0.0 mm 0.00 in0.0 mm 0.01 in0.3 mm
08:30 AM 59.7°F15.4°C 44.9°F7.2°C 58% 3.4 mph SE5.5 kmh SE 4.5 mph7.2 kmh 29.69 in1005.4 mb 0.00 in0.0 mm 0.00 in0.0 mm 0.01 in0.3 mm
08:45 AM 56.1°F13.4°C 43.3°F6.3°C 62% 4.5 mph S7.2 kmh S 6.9 mph11.1 kmh 29.70 in1005.8 mb 0.00 in0.0 mm 0.00 in0.0 mm 0.01 in0.3 mm
09:00 AM 55.2°F12.9°C 43.3°F6.3°C 64% 4.6 mph NNE7.4 kmh NNE 6.9 mph11.1 kmh 29.70 in1005.8 mb 0.00 in0.0 mm 0.00 in0.0 mm 0.01 in0.3 mm
09:30 AM 57.9°F14.4°C 45.4°F7.4°C 63% 4.0 mph NNW6.4 kmh NNW 9.8 mph15.8 kmh 29.70 in1005.8 mb 0.00 in0.0 mm 0.00 in0.0 mm 0.01 in0.3 mm
09:45 AM 59.5°F15.3°C 43.8°F6.6°C 56% 6.4 mph W10.3 kmh W 11.4 mph18.3 kmh 29.69 in1005.4 mb 0.00 in0.0 mm 0.00 in0.0 mm 0.01 in0.3 mm
10:00 AM 61.0°F16.1°C 43.7°F6.5°C 53% 5.2 mph NNE8.4 kmh NNE 8.3 mph13.4 kmh 29.69 in1005.4 mb 0.00 in0.0 mm 0.00 in0.0 mm 0.01 in0.3 mm
10:30 AM 62.1°F16.7°C 43.2°F6.2°C 50% 6.4 mph WSW10.3 kmh WSW 9.8 mph15.8 kmh 29.67 in1004.7 mb 0.00 in0.0 mm 0.00 in0.0 mm 0.01 in0.3 mm
10:45 AM 63.0°F17.2°C 43.0°F6.1°C 48% 5.8 mph SW9.3 kmh SW 7.6 mph12.2 kmh 29.68 in1005.1 mb 0.00 in0.0 mm 0.00 in0.0 mm 0.01 in0.3 mm
11:00 AM 60.4°F15.8°C 42.2°F5.7°C 51% 6.3 mph S10.1 kmh S 13.6 mph21.9 kmh 29.68 in1005.1 mb 0.00 in0.0 mm 0.00 in0.0 mm 0.01 in0.3 mm
11:15 AM 59.2°F15.1°C 42.6°F5.9°C 54% 5.8 mph NNW9.3 kmh NNW 8.3 mph13.4 kmh 29.67 in1004.7 mb 0.00 in0.0 mm 0.00 in0.0 mm 0.01 in0.3 mm
11:45 AM 58.6°F14.8°C 42.5°F5.8°C 55% 4.9 mph SSW7.9 kmh SSW 9.2 mph14.8 kmh 29.67 in1004.7 mb 0.00 in0.0 mm 0.00 in0.0 mm 0.01 in0.3 mm
12:00 PM 56.8°F13.8°C 42.2°F5.7°C 58% 4.9 mph S7.9 kmh S 6.9 mph11.1 kmh 29.67 in1004.7 mb 0.00 in0.0 mm 0.00 in0.0 mm 0.01 in0.3 mm
12:30 PM 56.5°F13.6°C 41.9°F5.5°C 58% 4.1 mph SE6.6 kmh SE 6.0 mph9.7 kmh 29.67 in1004.7 mb 0.00 in0.0 mm 0.00 in0.0 mm 0.01 in0.3 mm
12:45 PM 56.1°F13.4°C 42.9°F6.1°C 61% 2.4 mph N3.9 kmh N 3.8 mph6.1 kmh 29.67 in1004.7 mb 0.00 in0.0 mm 0.00 in0.0 mm 0.01 in0.3 mm
01:00 PM 55.2°F12.9°C 41.2°F5.1°C 59% 4.3 mph SE6.9 kmh SE 11.4 mph18.3 kmh 29.66 in1004.4 mb 0.00 in0.0 mm 0.00 in0.0 mm 0.01 in0.3 mm
01:15 PM 54.5°F12.5°C 40.9°F4.9°C 60% 4.1 mph SW6.6 kmh SW 10.7 mph17.2 kmh 29.66 in1004.4 mb 0.00 in0.0 mm 0.00 in0.0 mm 0.01 in0.3 mm
01:30 PM 54.7°F12.6°C 41.5°F5.3°C 61% 2.3 mph NE3.7 kmh NE 3.8 mph6.1 kmh 29.66 in1004.4 mb 0.00 in0.0 mm 0.00 in0.0 mm 0.01 in0.3 mm
01:45 PM 54.5°F12.5°C 41.8°F5.4°C 62% 3.1 mph N5.0 kmh N 5.4 mph8.7 kmh 29.65 in1004.1 mb 0.00 in0.0 mm 0.00 in0.0 mm 0.01 in0.3 mm
02:15 PM 55.0°F12.8°C 43.1°F6.2°C 64% 2.6 mph ENE4.2 kmh ENE 4.5 mph7.2 kmh 29.64 in1003.7 mb 0.00 in0.0 mm 0.00 in0.0 mm 0.01 in0.3 mm
02:30 PM 55.0°F12.8°C 43.1°F6.2°C 64% 1.6 mph NW2.6 kmh NW 3.8 mph6.1 kmh 29.64 in1003.7 mb 0.00 in0.0 mm 0.00 in0.0 mm 0.01 in0.3 mm
03:00 PM 54.7°F12.6°C 42.8°F6.0°C 64% 4.1 mph ESE6.6 kmh ESE 8.3 mph13.4 kmh 29.63 in1003.4 mb 0.00 in0.0 mm 0.00 in0.0 mm 0.01 in0.3 mm
03:15 PM 54.5°F12.5°C 43.0°F6.1°C 65% 2.5 mph W4.0 kmh W 4.5 mph7.2 kmh 29.62 in1003.0 mb 0.00 in0.0 mm 0.00 in0.0 mm 0.01 in0.3 mm
03:30 PM 54.1°F12.3°C 43.0°F6.1°C 66% 2.4 mph NW3.9 kmh NW 3.8 mph6.1 kmh 29.61 in1002.7 mb 0.00 in0.0 mm 0.00 in0.0 mm 0.01 in0.3 mm
03:45 PM 53.6°F12.0°C 43.3°F6.3°C 68% 1.6 mph NNW2.6 kmh NNW 2.2 mph3.5 kmh 29.60 in1002.4 mb 0.00 in0.0 mm 0.00 in0.0 mm 0.01 in0.3 mm
04:00 PM 53.4°F11.9°C 43.5°F6.4°C 69% 0.8 mph WNW1.3 kmh WNW 1.6 mph2.6 kmh 29.59 in1002.0 mb 0.00 in0.0 mm 0.00 in0.0 mm 0.01 in0.3 mm
04:01 PM 53.4°F11.9°C 43.5°F6.4°C 69% 0.9 mph NW1.4 kmh NW 1.6 mph2.6 kmh 29.60 in1002.4 mb 0.00 in0.0 mm 0.00 in0.0 mm 0.01 in0.3 mm
04:15 PM 53.8°F12.1°C 44.2°F6.8°C 70% 0.1 mph SE0.2 kmh SE 0.7 mph1.1 kmh 29.59 in1002.0 mb 0.00 in0.0 mm 0.00 in0.0 mm 0.01 in0.3 mm
04:30 PM 54.1°F12.3°C 44.2°F6.8°C 69% 0.6 mph NNW1.0 kmh NNW 1.6 mph2.6 kmh 29.59 in1002.0 mb 0.00 in0.0 mm 0.00 in0.0 mm 0.01 in0.3 mm
04:45 PM 54.0°F12.2°C 44.0°F6.7°C 69% 0.5 mph NNE0.8 kmh NNE 1.6 mph2.6 kmh 29.58 in1001.7 mb 0.00 in0.0 mm 0.00 in0.0 mm 0.01 in0.3 mm
05:00 PM 53.2°F11.8°C 44.5°F6.9°C 72% Calm Calm -- 29.57 in1001.4 mb 0.00 in0.0 mm 0.00 in0.0 mm 0.01 in0.3 mm
05:15 PM 52.7°F11.5°C 43.9°F6.6°C 72% 2.0 mph S3.2 kmh S 3.8 mph6.1 kmh 29.55 in1000.7 mb 0.00 in0.0 mm 0.00 in0.0 mm 0.01 in0.3 mm
05:16 PM 52.5°F11.4°C 43.8°F6.6°C 72% 2.2 mph S3.5 kmh S 3.8 mph6.1 kmh 29.55 in1000.7 mb 0.00 in0.0 mm 0.00 in0.0 mm 0.01 in0.3 mm
05:30 PM 52.3°F11.3°C 44.0°F6.7°C 73% 0.2 mph N0.3 kmh N 1.6 mph2.6 kmh 29.54 in1000.3 mb 0.00 in0.0 mm 0.00 in0.0 mm 0.01 in0.3 mm
05:31 PM 52.2°F11.2°C 44.1°F6.7°C 74% 0.1 mph NNE0.2 kmh NNE 0.7 mph1.1 kmh 29.54 in1000.3 mb 0.00 in0.0 mm 0.00 in0.0 mm 0.01 in0.3 mm
05:45 PM 51.6°F10.9°C 45.3°F7.4°C 79% Calm Calm -- 29.54 in1000.3 mb 0.00 in0.0 mm 0.00 in0.0 mm 0.01 in0.3 mm
06:00 PM 51.3°F10.7°C 45.0°F7.2°C 79% 0.2 mph W0.3 kmh W 0.7 mph1.1 kmh 29.52 in999.7 mb 0.00 in0.0 mm 0.00 in0.0 mm 0.01 in0.3 mm
06:30 PM 49.8°F9.9°C 44.9°F7.2°C 83% 0.3 mph NE0.5 kmh NE 1.6 mph2.6 kmh 29.52 in999.7 mb 0.00 in0.0 mm 0.00 in0.0 mm 0.01 in0.3 mm
06:45 PM 49.1°F9.5°C 44.5°F6.9°C 84% 0.1 mph SW0.2 kmh SW 0.7 mph1.1 kmh 29.52 in999.7 mb 0.00 in0.0 mm 0.00 in0.0 mm 0.01 in0.3 mm
07:00 PM 48.6°F9.2°C 44.0°F6.7°C 84% Calm Calm -- 29.52 in999.7 mb 0.00 in0.0 mm 0.00 in0.0 mm 0.01 in0.3 mm
07:15 PM 48.2°F9.0°C 44.2°F6.8°C 86% 0.2 mph N0.3 kmh N 1.6 mph2.6 kmh 29.50 in999.0 mb 0.00 in0.0 mm 0.00 in0.0 mm 0.01 in0.3 mm
07:30 PM 47.7°F8.7°C 44.3°F6.8°C 88% Calm Calm -- 29.49 in998.6 mb 0.00 in0.0 mm 0.00 in0.0 mm 0.01 in0.3 mm
07:45 PM 47.1°F8.4°C 44.0°F6.7°C 89% Calm Calm -- 29.50 in999.0 mb 0.00 in0.0 mm 0.00 in0.0 mm 0.01 in0.3 mm
08:00 PM 46.9°F8.3°C 43.9°F6.6°C 89% Calm Calm -- 29.50 in999.0 mb 0.00 in0.0 mm 0.00 in0.0 mm 0.01 in0.3 mm
08:15 PM 46.8°F8.2°C 44.0°F6.7°C 90% Calm Calm -- 29.48 in998.3 mb 0.00 in0.0 mm 0.00 in0.0 mm 0.01 in0.3 mm
08:30 PM 46.6°F8.1°C 44.1°F6.7°C 91% Calm Calm -- 29.47 in998.0 mb 0.00 in0.0 mm 0.00 in0.0 mm 0.01 in0.3 mm
08:45 PM 46.4°F8.0°C 43.9°F6.6°C 91% 0.1 mph N0.2 kmh N 1.6 mph2.6 kmh 29.45 in997.3 mb 0.00 in0.0 mm 0.00 in0.0 mm 0.01 in0.3 mm
09:00 PM 46.2°F7.9°C 43.7°F6.5°C 91% Calm Calm -- 29.44 in997.0 mb 0.00 in0.0 mm 0.00 in0.0 mm 0.01 in0.3 mm
09:15 PM 46.2°F7.9°C 44.0°F6.7°C 92% 0.3 mph S0.5 kmh S 0.7 mph1.1 kmh 29.45 in997.3 mb 0.00 in0.0 mm 0.00 in0.0 mm 0.01 in0.3 mm
09:30 PM 46.2°F7.9°C 44.0°F6.7°C 92% 0.5 mph N0.8 kmh N 1.6 mph2.6 kmh 29.45 in997.3 mb 0.00 in0.0 mm 0.00 in0.0 mm 0.01 in0.3 mm
09:45 PM 46.2°F7.9°C 44.3°F6.8°C 93% 0.7 mph NNW1.1 kmh NNW 2.2 mph3.5 kmh 29.42 in996.3 mb 0.00 in0.0 mm 0.00 in0.0 mm 0.01 in0.3 mm
10:00 PM 46.0°F7.8°C 44.1°F6.7°C 93% 0.4 mph WNW0.6 kmh WNW 2.2 mph3.5 kmh 29.40 in995.6 mb 0.00 in0.0 mm 0.00 in0.0 mm 0.01 in0.3 mm
10:15 PM 45.9°F7.7°C 44.0°F6.7°C 93% 0.9 mph SW1.4 kmh SW 2.2 mph3.5 kmh 29.39 in995.3 mb 0.00 in0.0 mm 0.00 in0.0 mm 0.01 in0.3 mm
10:30 PM 45.5°F7.5°C 43.3°F6.3°C 92% 0.4 mph NNW0.6 kmh NNW 1.6 mph2.6 kmh 29.39 in995.3 mb 0.00 in0.0 mm 0.00 in0.0 mm 0.01 in0.3 mm
10:45 PM 45.5°F7.5°C 43.3°F6.3°C 92% 0.6 mph N1.0 kmh N 1.6 mph2.6 kmh 29.38 in994.9 mb 0.00 in0.0 mm 0.00 in0.0 mm 0.01 in0.3 mm
11:15 PM 45.3°F7.4°C 43.4°F6.3°C 93% 0.7 mph NE1.1 kmh NE 1.6 mph2.6 kmh 29.37 in994.6 mb 0.01 in0.3 mm 0.02 in0.5 mm 0.02 in0.5 mm
11:16 PM 45.3°F7.4°C 43.4°F6.3°C 93% 0.8 mph NE1.3 kmh NE 1.6 mph2.6 kmh 29.36 in994.2 mb 0.01 in0.3 mm 0.00 in0.0 mm 0.02 in0.5 mm
11:30 PM 45.0°F7.2°C 43.1°F6.2°C 93% 0.6 mph N1.0 kmh N 1.6 mph2.6 kmh 29.36 in994.2 mb 0.02 in0.5 mm 0.04 in1.0 mm 0.01 in0.3 mm
11:45 PM 45.3°F7.4°C 43.4°F6.3°C 93% 0.4 mph N0.6 kmh N 1.6 mph2.6 kmh 29.35 in993.9 mb 0.04 in1.0 mm 0.08 in2.0 mm 0.02 in0.5 mm